Time;durP1;ratioP1;P1;durP2;ratioP2;P2;SDS_P1;SDS_P2;PMS_P1;PMS_P2;Temp;Humidity;BMP_temperature;BMP_pressure;BME280_temperature;BME280_humidity;BME280_pressure;Samples;Min_cycle;Max_cycle;Signal;HPM_P1;HPM_P2
2022/04/27 00:02:09;;;;;;;336.38;42.70;;;4.20;99.90;;;;;;5053985;28;20490;-85
2022/04/27 00:04:37;;;;;;;695.63;116.10;;;4.10;99.90;;;;;;5047965;28;20397;-85
2022/04/27 00:07:07;;;;;;;152.83;27.30;;;4.10;99.90;;;;;;5049078;28;20386;-85
2022/04/27 00:09:34;;;;;;;394.25;67.35;;;4.10;99.90;;;;;;5044711;28;20401;-85
2022/04/27 00:12:02;;;;;;;204.65;38.55;;;3.90;99.90;;;;;;5050365;28;20496;-85
2022/04/27 00:14:31;;;;;;;168.60;24.80;;;3.80;99.90;;;;;;5028017;28;20451;-85
2022/04/27 00:16:59;;;;;;;32.27;3.17;;;3.70;99.90;;;;;;5028753;28;20390;-85
2022/04/27 00:19:27;;;;;;;183.38;22.98;;;3.60;99.90;;;;;;5047203;28;20393;-86
2022/04/27 00:21:55;;;;;;;288.95;49.13;;;3.80;99.90;;;;;;5033675;28;20386;-86
2022/04/27 00:24:22;;;;;;;213.48;27.52;;;3.70;99.90;;;;;;5031522;28;20389;-85
2022/04/27 00:26:50;;;;;;;264.13;38.38;;;3.80;99.90;;;;;;5050405;28;20776;-86
2022/04/27 00:29:17;;;;;;;121.88;12.30;;;3.80;99.90;;;;;;5047436;28;20394;-86
2022/04/27 00:31:45;;;;;;;124.30;17.30;;;3.80;99.90;;;;;;5047814;28;20401;-86
2022/04/27 00:34:12;;;;;;;200.60;30.52;;;3.70;99.90;;;;;;5032894;28;20542;-86
2022/04/27 00:36:40;;;;;;;273.38;34.33;;;3.80;99.90;;;;;;5059451;28;20403;-85
2022/04/27 00:39:07;;;;;;;63.05;5.93;;;3.60;99.90;;;;;;5046933;28;20392;-86
2022/04/27 00:41:35;;;;;;;282.83;40.35;;;3.70;99.90;;;;;;5049764;28;20440;-85
2022/04/27 00:44:02;;;;;;;255.20;37.57;;;3.70;99.90;;;;;;5047670;28;20390;-85
2022/04/27 00:46:29;;;;;;;48.33;5.13;;;3.60;99.90;;;;;;5047859;28;20971;-85
2022/04/27 00:48:58;;;;;;;160.05;17.85;;;3.60;99.90;;;;;;5060569;28;20411;-85
2022/04/27 00:51:26;;;;;;;98.97;10.45;;;3.70;99.90;;;;;;5048972;28;20396;-84
2022/04/27 00:53:54;;;;;;;563.07;51.03;;;3.70;99.90;;;;;;5047651;28;20588;-87
2022/04/27 00:56:23;;;;;;;426.98;75.30;;;3.40;99.90;;;;;;5016814;28;20446;-87
2022/04/27 00:58:50;;;;;;;478.55;80.40;;;3.40;99.90;;;;;;5047306;28;20419;-86
2022/04/27 01:01:19;;;;;;;270.27;42.65;;;3.30;99.90;;;;;;5043016;28;20405;-87
2022/04/27 01:03:47;;;;;;;217.75;20.85;;;3.40;99.90;;;;;;5047629;28;20424;-87
2022/04/27 01:06:15;;;;;;;236.50;28.52;;;3.60;99.90;;;;;;5045613;28;20397;-87
2022/04/27 01:08:43;;;;;;;303.77;47.28;;;3.50;99.90;;;;;;5032550;28;20393;-86
2022/04/27 01:11:11;;;;;;;246.93;39.13;;;3.30;99.90;;;;;;5060181;28;20407;-86
2022/04/27 01:13:48;;;;;;;522.70;86.82;;;3.20;99.90;;;;;;5050765;28;20396;-86
2022/04/27 01:16:15;;;;;;;7.57;1.25;;;3.30;99.90;;;;;;5034340;28;20432;-87
2022/04/27 01:18:44;;;;;;;307.55;57.03;;;3.30;99.90;;;;;;5032089;28;20425;-86
2022/04/27 01:21:12;;;;;;;430.35;66.30;;;3.20;99.90;;;;;;5041235;28;20402;-87
2022/04/27 01:23:46;;;;;;;203.15;25.35;;;3.20;99.90;;;;;;5025099;28;20399;-87
2022/04/27 01:26:14;;;;;;;230.93;32.00;;;3.30;99.90;;;;;;5047242;28;20432;-87
2022/04/27 01:28:42;;;;;;;241.40;31.65;;;3.30;99.90;;;;;;5040117;28;20424;-87
2022/04/27 01:31:10;;;;;;;233.05;34.80;;;3.20;99.90;;;;;;5030835;28;20447;-86
2022/04/27 01:33:39;;;;;;;177.43;32.30;;;3.10;99.90;;;;;;5029161;28;20397;-86
2022/04/27 01:36:09;;;;;;;86.90;9.98;;;3.00;99.90;;;;;;5049964;28;20392;-86
2022/04/27 01:38:38;;;;;;;123.93;18.60;;;3.00;99.90;;;;;;5048130;28;20404;-86
2022/04/27 01:41:06;;;;;;;129.35;23.38;;;2.90;99.90;;;;;;5050646;28;20487;-86
2022/04/27 01:43:35;;;;;;;181.02;16.02;;;3.00;99.90;;;;;;5051584;28;20388;-86
2022/04/27 01:46:07;;;;;;;397.07;64.17;;;2.90;99.90;;;;;;5050575;28;20392;-87
2022/04/27 01:48:36;;;;;;;213.77;28.27;;;3.00;99.90;;;;;;5047230;28;20397;-88
2022/04/27 01:51:03;;;;;;;256.02;31.05;;;3.00;99.90;;;;;;5051205;28;20388;-87
2022/04/27 01:56:19;;;;;;;323.48;37.78;;;3.00;99.90;;;;;;5050306;28;20427;-86
2022/04/27 01:58:51;;;;;;;437.98;68.50;;;3.00;99.90;;;;;;5049909;28;20937;-86
2022/04/27 02:01:21;;;;;;;696.72;130.25;;;2.90;99.90;;;;;;5047562;28;20442;-86
2022/04/27 02:03:51;;;;;;;99.80;13.60;;;2.80;99.90;;;;;;5050413;28;20431;-86
2022/04/27 02:06:21;;;;;;;179.20;23.35;;;2.70;99.90;;;;;;5033946;28;20947;-87
2022/04/27 02:08:48;;;;;;;235.27;29.42;;;2.70;99.90;;;;;;5031195;28;20478;-86
2022/04/27 02:11:25;;;;;;;503.85;67.40;;;2.70;99.90;;;;;;5046897;28;20405;-87
2022/04/27 02:14:06;;;;;;;461.55;93.80;;;2.60;99.90;;;;;;5046968;28;20745;-87
2022/04/27 02:16:38;;;;;;;190.73;22.52;;;2.50;99.90;;;;;;5031721;28;20393;-85
2022/04/27 02:19:11;;;;;;;82.72;15.35;;;2.50;99.90;;;;;;5046836;28;20392;-85
2022/04/27 02:21:41;;;;;;;347.13;59.05;;;2.60;99.90;;;;;;5030509;28;20756;-85
2022/04/27 02:24:11;;;;;;;238.80;37.80;;;2.50;99.90;;;;;;5030359;28;20390;-87
2022/04/27 02:26:38;;;;;;;271.65;45.90;;;2.60;99.90;;;;;;5047239;28;20408;-87
2022/04/27 02:29:06;;;;;;;119.75;20.98;;;2.70;99.90;;;;;;5045437;28;20385;-87
2022/04/27 02:31:35;;;;;;;299.77;45.20;;;2.80;99.90;;;;;;5046642;28;20409;-88
2022/04/27 02:34:03;;;;;;;198.07;35.60;;;2.80;99.90;;;;;;5039282;28;20472;-87
2022/04/27 02:36:32;;;;;;;268.88;45.78;;;2.80;99.90;;;;;;5033504;28;20959;-87
2022/04/27 02:38:59;;;;;;;177.80;34.00;;;2.90;99.90;;;;;;5035290;28;20439;-87
2022/04/27 02:41:30;;;;;;;222.35;32.70;;;2.90;99.90;;;;;;5046683;28;20803;-86
2022/04/27 02:43:59;;;;;;;350.08;56.75;;;2.80;99.90;;;;;;5030545;28;20527;-84
2022/04/27 02:46:26;;;;;;;231.52;36.35;;;2.60;99.90;;;;;;5046499;28;20377;-85
2022/04/27 02:51:49;;;;;;;300.30;48.38;;;2.60;99.90;;;;;;5049452;28;20408;-86
2022/04/27 02:54:22;;;;;;;34.47;6.00;;;2.60;99.90;;;;;;5049643;28;20819;-86
2022/04/27 02:56:58;;;;;;;118.45;16.67;;;2.70;99.90;;;;;;5049509;28;20449;-86
2022/04/27 02:59:27;;;;;;;366.63;60.85;;;2.70;99.90;;;;;;5049463;28;20448;-87
2022/04/27 03:01:56;;;;;;;359.20;60.15;;;2.70;99.90;;;;;;5049589;28;20404;-86
2022/04/27 03:04:23;;;;;;;174.38;37.92;;;2.80;99.90;;;;;;5066009;28;20893;-86
2022/04/27 03:06:51;;;;;;;180.43;23.92;;;2.80;99.90;;;;;;5046707;28;20868;-87
2022/04/27 03:09:18;;;;;;;218.80;30.50;;;2.90;99.90;;;;;;5046650;28;20484;-86
2022/04/27 03:11:46;;;;;;;95.57;9.98;;;2.70;99.90;;;;;;5046280;28;20404;-87
2022/04/27 03:14:28;;;;;;;657.92;127.07;;;2.80;99.90;;;;;;5031629;28;20755;-87
2022/04/27 03:16:56;;;;;;;555.45;83.25;;;2.80;99.90;;;;;;5046090;28;20400;-86
2022/04/27 03:19:24;;;;;;;229.95;31.85;;;2.70;99.90;;;;;;5029599;28;20898;-87
2022/04/27 03:21:52;;;;;;;554.05;95.90;;;2.70;99.90;;;;;;5029663;28;20480;-87
2022/04/27 03:24:21;;;;;;;169.88;23.92;;;2.70;99.90;;;;;;5041380;28;20455;-87
2022/04/27 03:26:52;;;;;;;50.65;5.53;;;2.80;99.90;;;;;;5047064;28;21464;-87
2022/04/27 03:29:22;;;;;;;247.93;37.60;;;2.90;99.90;;;;;;5046094;28;20456;-87
2022/04/27 03:31:56;;;;;;;395.77;79.40;;;2.80;99.90;;;;;;5029111;28;20933;-87
2022/04/27 03:34:23;;;;;;;469.63;92.78;;;2.80;99.90;;;;;;5016501;28;20389;-86
2022/04/27 03:36:53;;;;;;;416.40;66.70;;;2.80;99.90;;;;;;5052427;28;20444;-87
2022/04/27 03:39:21;;;;;;;484.35;71.32;;;2.80;99.90;;;;;;5052719;28;20396;-87
2022/04/27 03:42:12;;;;;;;186.02;21.58;;;2.80;99.90;;;;;;5039578;28;20453;-87
2022/04/27 03:44:43;;;;;;;179.32;19.35;;;2.90;99.90;;;;;;5051779;28;20416;-87
2022/04/27 03:47:11;;;;;;;151.20;21.87;;;2.80;99.90;;;;;;5032820;28;20427;-87
2022/04/27 03:49:38;;;;;;;447.20;79.13;;;2.90;99.90;;;;;;5038397;28;20398;-87
2022/04/27 03:52:06;;;;;;;229.93;38.40;;;2.80;99.90;;;;;;5051099;28;20475;-87
2022/04/27 03:54:34;;;;;;;321.83;60.22;;;2.80;99.90;;;;;;5060388;28;20409;-86
2022/04/27 03:57:03;;;;;;;879.67;128.98;;;2.90;99.90;;;;;;5052752;28;20753;-86
2022/04/27 03:59:30;;;;;;;552.35;99.70;;;2.80;99.90;;;;;;5052449;28;20395;-87
2022/04/27 04:02:00;;;;;;;15.50;3.13;;;2.80;99.90;;;;;;5033577;28;20487;-87
2022/04/27 04:04:28;;;;;;;274.63;52.20;;;2.90;99.90;;;;;;5048540;28;20816;-86
2022/04/27 04:06:56;;;;;;;209.65;21.75;;;2.80;99.90;;;;;;5035804;28;20407;-87
2022/04/27 04:09:25;;;;;;;427.23;67.67;;;2.90;99.90;;;;;;5052076;28;20421;-87
2022/04/27 04:11:53;;;;;;;362.30;61.45;;;2.90;99.90;;;;;;5068712;28;20751;-87
2022/04/27 04:14:43;;;;;;;389.23;55.15;;;2.90;99.90;;;;;;5047554;28;20757;-86
2022/04/27 04:17:24;;;;;;;128.43;19.42;;;2.90;99.90;;;;;;5050304;28;20402;-87
2022/04/27 04:20:04;;;;;;;836.70;141.10;;;2.90;99.90;;;;;;5045358;28;20396;-87
2022/04/27 04:22:58;;;;;;;429.33;81.43;;;2.90;99.90;;;;;;5034029;28;20384;-85
2022/04/27 04:28:32;;;;;;;412.63;64.90;;;2.80;99.90;;;;;;5053804;28;20442;-87
2022/04/27 04:31:03;;;;;;;264.33;59.88;;;2.80;99.90;;;;;;5048244;28;20402;-87
2022/04/27 04:33:45;;;;;;;106.78;14.02;;;2.80;99.90;;;;;;5032204;28;20749;-86
2022/04/27 04:36:13;;;;;;;426.83;67.55;;;2.90;99.90;;;;;;5035184;28;20826;-86
2022/04/27 04:38:42;;;;;;;197.68;29.77;;;2.80;99.90;;;;;;5015887;28;20402;-86
2022/04/27 04:41:16;;;;;;;230.10;48.00;;;2.80;99.90;;;;;;5048447;28;20433;-87
2022/04/27 04:43:47;;;;;;;338.50;47.65;;;2.80;99.90;;;;;;5048021;28;20452;-87
2022/04/27 04:46:16;;;;;;;198.35;45.80;;;2.80;99.90;;;;;;5031832;28;20413;-87
2022/04/27 04:49:04;;;;;;;399.40;47.50;;;2.90;99.90;;;;;;5007756;28;20810;-86
2022/04/27 04:51:58;;;;;;;126.80;14.60;;;2.90;99.90;;;;;;5028629;28;20892;-87
2022/04/27 04:54:41;;;;;;;200.65;25.77;;;2.90;99.90;;;;;;5043074;28;20408;-86
2022/04/27 04:57:27;;;;;;;136.63;19.03;;;3.00;99.90;;;;;;5063591;28;20401;-87
2022/04/27 05:00:27;;;;;;;556.42;69.78;;;3.00;99.90;;;;;;5050408;28;20386;-86
2022/04/27 05:03:09;;;;;;;79.30;10.50;;;3.00;99.90;;;;;;5033361;28;20393;-87
2022/04/27 05:05:59;;;;;;;30.35;3.58;;;3.00;99.90;;;;;;5036882;28;20397;-87
2022/04/27 05:08:44;;;;;;;326.02;54.03;;;3.00;99.90;;;;;;5019170;28;20409;-86
2022/04/27 05:11:28;;;;;;;215.98;37.05;;;3.00;99.90;;;;;;5049401;28;20483;-87
2022/04/27 05:14:17;;;;;;;138.07;20.35;;;3.00;99.90;;;;;;5051244;28;20423;-87
2022/04/27 05:17:04;;;;;;;1461.93;128.43;;;3.00;99.90;;;;;;5034163;28;20469;-86
2022/04/27 05:19:45;;;;;;;107.63;13.60;;;3.00;99.90;;;;;;5047626;28;20406;-87
2022/04/27 05:22:21;;;;;;;55.20;6.05;;;3.00;99.90;;;;;;5039439;28;20400;-86
2022/04/27 05:25:09;;;;;;;529.03;80.53;;;3.00;99.90;;;;;;5049269;28;20402;-86
2022/04/27 05:27:55;;;;;;;746.30;111.10;;;3.00;99.90;;;;;;5048237;28;20399;-86
2022/04/27 05:33:52;;;;;;;550.88;87.55;;;3.20;99.90;;;;;;5025078;28;20767;-88
2022/04/27 05:36:38;;;;;;;320.90;73.10;;;3.20;99.90;;;;;;5034584;28;20389;-88
2022/04/27 05:39:22;;;;;;;254.48;47.40;;;3.20;99.90;;;;;;5047515;28;20405;-88
2022/04/27 05:42:24;;;;;;;259.77;46.03;;;3.20;99.90;;;;;;5031789;28;20405;-88
2022/04/27 05:45:21;;;;;;;93.88;13.32;;;3.10;99.90;;;;;;5033198;28;20381;-88
2022/04/27 05:48:12;;;;;;;150.60;23.90;;;3.10;99.90;;;;;;5028810;28;20405;-89
2022/04/27 05:50:43;;;;;;;218.35;38.33;;;3.20;99.90;;;;;;5029633;28;20397;-88
2022/04/27 05:53:33;;;;;;;1016.40;125.03;;;3.20;99.90;;;;;;5044603;28;20447;-88
2022/04/27 05:56:22;;;;;;;76.30;11.50;;;3.10;99.90;;;;;;5049183;28;20487;-88
2022/04/27 05:59:13;;;;;;;3.65;1.10;;;3.10;99.90;;;;;;5044804;28;20483;-88
2022/04/27 06:01:59;;;;;;;355.10;57.37;;;3.10;99.90;;;;;;5042224;28;20525;-88
2022/04/27 06:04:28;;;;;;;241.67;27.57;;;3.20;99.90;;;;;;5033029;28;20400;-89
2022/04/27 06:06:56;;;;;;;155.10;31.90;;;3.20;99.90;;;;;;5046861;28;20447;-89
2022/04/27 06:09:23;;;;;;;502.20;85.67;;;3.20;99.90;;;;;;5053273;28;20921;-89
2022/04/27 06:12:07;;;;;;;123.50;13.33;;;3.20;99.90;;;;;;5050354;28;20479;-89
2022/04/27 06:14:44;;;;;;;327.77;76.82;;;3.20;99.90;;;;;;5049872;28;20388;-89
2022/04/27 06:17:26;;;;;;;142.00;18.23;;;3.20;99.90;;;;;;5032757;28;20439;-87
2022/04/27 06:19:54;;;;;;;105.28;18.65;;;3.30;99.90;;;;;;5047293;28;20488;-88
2022/04/27 06:22:22;;;;;;;111.32;15.75;;;3.30;99.90;;;;;;5031990;28;20399;-89
2022/04/27 06:24:50;;;;;;;379.08;67.57;;;3.30;99.90;;;;;;5046761;28;20453;-88
2022/04/27 06:27:37;;;;;;;89.85;8.27;;;3.30;99.90;;;;;;5050763;28;20422;-89
2022/04/27 06:30:05;;;;;;;197.87;39.20;;;3.40;99.90;;;;;;5050537;28;20404;-90
2022/04/27 06:32:35;;;;;;;233.48;30.42;;;3.40;99.90;;;;;;5033847;28;20417;-89
2022/04/27 06:35:06;;;;;;;284.93;41.47;;;3.50;99.90;;;;;;5034319;28;20962;-88
2022/04/27 06:37:35;;;;;;;266.27;40.63;;;3.50;99.90;;;;;;5046750;28;20390;-89
2022/04/27 06:40:04;;;;;;;72.47;11.00;;;3.60;99.90;;;;;;5042762;28;20388;-87
2022/04/27 06:42:31;;;;;;;138.30;23.23;;;3.60;99.90;;;;;;5017463;28;20393;-87
2022/04/27 06:45:17;;;;;;;106.30;10.90;;;3.60;99.90;;;;;;5030759;28;20443;-87
2022/04/27 06:48:04;;;;;;;196.55;27.40;;;3.60;99.90;;;;;;5044423;28;20421;-88
2022/04/27 06:50:50;;;;;;;197.93;27.33;;;3.60;99.90;;;;;;5032476;28;20385;-88
2022/04/27 06:53:37;;;;;;;707.63;89.45;;;3.60;99.90;;;;;;5053375;28;20406;-87
2022/04/27 06:56:43;;;;;;;431.17;61.33;;;3.70;99.90;;;;;;5001160;28;20783;-87
2022/04/27 06:59:29;;;;;;;315.23;54.35;;;3.70;99.90;;;;;;4989724;28;20395;-88
2022/04/27 07:02:03;;;;;;;257.40;37.83;;;3.80;99.90;;;;;;5032817;28;20403;-88
2022/04/27 07:04:35;;;;;;;171.75;20.23;;;3.80;99.90;;;;;;5049765;28;20402;-88
2022/04/27 07:07:03;;;;;;;210.00;29.00;;;3.90;99.90;;;;;;5048183;28;20396;-87
2022/04/27 07:09:31;;;;;;;559.25;85.35;;;3.90;99.90;;;;;;5038612;28;20759;-88
2022/04/27 07:11:59;;;;;;;332.25;60.75;;;3.80;99.90;;;;;;5042792;28;20393;-87
2022/04/27 07:14:27;;;;;;;232.68;41.85;;;3.80;99.90;;;;;;5066249;28;20558;-87
2022/04/27 07:16:54;;;;;;;195.07;34.42;;;3.90;99.90;;;;;;5047947;28;20755;-87
2022/04/27 07:19:22;;;;;;;636.15;79.05;;;3.90;99.90;;;;;;5033729;28;20393;-87
2022/04/27 07:21:49;;;;;;;319.03;50.40;;;4.00;99.90;;;;;;5041167;28;20406;-88
2022/04/27 07:24:17;;;;;;;561.97;71.32;;;4.10;99.90;;;;;;5049270;28;20441;-88
2022/04/27 07:26:45;;;;;;;134.48;18.20;;;4.30;99.90;;;;;;5033712;28;20398;-88
2022/04/27 07:29:14;;;;;;;275.58;29.80;;;4.40;99.90;;;;;;5050420;28;20386;-88
2022/04/27 07:31:48;;;;;;;716.45;89.78;;;4.30;99.90;;;;;;5054639;28;20765;-88
2022/04/27 07:34:16;;;;;;;587.05;76.40;;;4.40;99.90;;;;;;5038957;28;20408;-86
2022/04/27 07:36:43;;;;;;;770.60;97.33;;;4.40;99.90;;;;;;5049824;28;20420;-88
2022/04/27 07:39:11;;;;;;;511.42;69.53;;;4.50;99.90;;;;;;5052977;28;20392;-88
2022/04/27 07:41:38;;;;;;;308.17;31.67;;;4.50;99.90;;;;;;5052713;28;20392;-87
2022/04/27 07:44:08;;;;;;;494.67;73.97;;;4.40;99.90;;;;;;5050182;28;20502;-88
2022/04/27 07:46:36;;;;;;;831.08;92.53;;;4.50;99.90;;;;;;5047317;28;20834;-87
2022/04/27 07:49:03;;;;;;;290.20;46.25;;;4.40;99.90;;;;;;5050016;28;20737;-87
2022/04/27 07:51:32;;;;;;;677.13;85.03;;;4.50;99.90;;;;;;5057194;28;20929;-87
2022/04/27 07:54:00;;;;;;;580.40;83.50;;;4.50;99.90;;;;;;5052491;28;20928;-88
2022/04/27 07:56:27;;;;;;;180.65;22.90;;;4.40;99.90;;;;;;5053591;28;20892;-88
2022/04/27 07:58:55;;;;;;;305.77;47.97;;;4.50;99.90;;;;;;5049345;28;20386;-88
2022/04/27 08:01:23;;;;;;;444.60;64.05;;;4.40;99.90;;;;;;5053335;28;20415;-88
2022/04/27 08:03:50;;;;;;;525.88;51.40;;;4.40;99.90;;;;;;5053078;28;20407;-88
2022/04/27 08:06:18;;;;;;;317.85;56.15;;;4.40;99.90;;;;;;5052982;28;20418;-87
2022/04/27 08:08:45;;;;;;;463.45;52.47;;;4.40;99.90;;;;;;5052357;28;20754;-88
2022/04/27 08:11:14;;;;;;;506.02;80.70;;;4.30;99.90;;;;;;5052450;28;20893;-88
2022/04/27 08:13:43;;;;;;;768.65;85.70;;;4.30;99.90;;;;;;5049305;28;20833;-87
2022/04/27 08:16:11;;;;;;;180.60;25.60;;;4.30;99.90;;;;;;5033980;28;20482;-87
2022/04/27 08:18:39;;;;;;;330.83;34.70;;;4.40;99.90;;;;;;5048707;28;20751;-88
2022/04/27 08:21:15;;;;;;;172.82;27.90;;;4.50;99.90;;;;;;5049326;28;20405;-88
2022/04/27 08:23:46;;;;;;;195.55;25.45;;;4.50;99.90;;;;;;5049510;28;20417;-88
2022/04/27 08:26:15;;;;;;;316.57;30.00;;;4.70;99.90;;;;;;5045476;28;20484;-88
2022/04/27 08:28:43;;;;;;;172.00;30.00;;;4.80;99.90;;;;;;5049088;28;20881;-87
2022/04/27 08:31:13;;;;;;;435.23;48.20;;;4.70;99.90;;;;;;5052512;28;20975;-87
2022/04/27 08:33:42;;;;;;;745.83;80.32;;;4.80;99.90;;;;;;5048771;28;20406;-87
2022/04/27 08:36:10;;;;;;;808.65;82.50;;;4.60;99.90;;;;;;5032462;28;20392;-86
2022/04/27 08:38:59;;;;;;;512.08;69.85;;;4.70;99.90;;;;;;5032648;28;20400;-87
2022/04/27 08:41:28;;;;;;;793.25;90.60;;;4.80;99.90;;;;;;5041210;28;20398;-87
2022/04/27 08:43:56;;;;;;;517.42;84.93;;;4.80;99.90;;;;;;5033305;28;20895;-87
2022/04/27 08:46:24;;;;;;;290.83;38.10;;;4.80;99.90;;;;;;5041575;28;20388;-86
2022/04/27 08:48:51;;;;;;;575.67;66.57;;;4.90;99.90;;;;;;5048060;28;20501;-87
2022/04/27 08:51:19;;;;;;;829.65;141.82;;;4.80;99.90;;;;;;5040694;28;20396;-88
2022/04/27 08:53:46;;;;;;;392.27;49.33;;;4.90;99.90;;;;;;5051347;28;20388;-86
2022/04/27 08:56:16;;;;;;;288.50;36.45;;;4.80;99.90;;;;;;5049408;28;20397;-87
2022/04/27 08:58:44;;;;;;;1051.07;126.30;;;4.80;99.90;;;;;;5045626;28;20403;-87
2022/04/27 09:01:12;;;;;;;576.00;73.65;;;4.70;99.90;;;;;;5046001;28;20412;-87
2022/04/27 09:03:41;;;;;;;360.33;69.75;;;4.80;99.90;;;;;;5020570;28;20417;-87
2022/04/27 09:06:12;;;;;;;69.77;9.83;;;4.90;99.90;;;;;;5060671;28;20397;-88
2022/04/27 09:08:44;;;;;;;464.80;58.75;;;5.00;99.90;;;;;;5038178;28;20787;-87
2022/04/27 09:11:28;;;;;;;618.08;83.88;;;5.00;99.90;;;;;;5062656;28;20399;-87
2022/04/27 09:13:58;;;;;;;556.97;84.93;;;5.00;99.90;;;;;;5047864;28;20402;-88
2022/04/27 09:22:44;;;;;;;396.70;52.22;;;4.90;99.90;;;;;;5035037;28;20404;-88
2022/04/27 09:25:11;;;;;;;788.00;79.72;;;4.90;99.90;;;;;;5032585;28;20968;-88
2022/04/27 09:27:41;;;;;;;265.63;39.05;;;5.00;99.90;;;;;;5031398;28;20397;-87
2022/04/27 09:30:11;;;;;;;424.17;62.00;;;4.90;99.90;;;;;;5047524;28;20401;-88
2022/04/27 09:32:50;;;;;;;381.50;64.83;;;5.00;99.90;;;;;;5044095;28;20405;-88
2022/04/27 09:35:35;;;;;;;410.33;74.18;;;5.20;99.90;;;;;;5051432;28;20387;-87
2022/04/27 09:38:17;;;;;;;423.58;50.85;;;5.40;99.90;;;;;;5046810;28;20485;-88
2022/04/27 09:40:54;;;;;;;234.27;36.80;;;5.30;99.90;;;;;;5071852;28;20404;-90
2022/04/27 09:43:45;;;;;;;607.67;77.93;;;5.20;99.90;;;;;;5043279;28;20406;-87
2022/04/27 09:46:23;;;;;;;420.90;77.55;;;5.10;99.90;;;;;;5040596;28;20401;-87
2022/04/27 09:49:13;;;;;;;224.52;22.08;;;5.00;99.90;;;;;;5048639;28;20492;-86
2022/04/27 09:51:58;;;;;;;472.55;53.63;;;4.90;99.90;;;;;;5039551;28;20408;-87
2022/04/27 09:54:28;;;;;;;342.52;52.50;;;4.90;99.90;;;;;;5021513;28;20909;-88
2022/04/27 09:57:01;;;;;;;335.17;38.03;;;4.90;99.90;;;;;;5047857;28;20879;-88
2022/04/27 09:59:30;;;;;;;257.13;45.03;;;4.80;99.90;;;;;;5034342;28;20399;-88
2022/04/27 10:02:21;;;;;;;219.95;36.78;;;4.90;99.90;;;;;;5064413;28;20470;-88
2022/04/27 10:04:50;;;;;;;367.50;55.58;;;4.90;99.90;;;;;;5024064;28;20502;-87
2022/04/27 10:07:21;;;;;;;301.42;41.67;;;5.20;99.90;;;;;;5047484;28;20401;-87
2022/04/27 10:09:52;;;;;;;179.70;33.28;;;5.40;99.90;;;;;;5047211;28;20396;-88
2022/04/27 10:12:21;;;;;;;355.53;40.63;;;5.60;99.90;;;;;;5047295;28;20479;-87
2022/04/27 10:14:48;;;;;;;253.02;24.63;;;5.80;99.90;;;;;;5048109;28;20464;-87
2022/04/27 10:17:16;;;;;;;54.22;7.90;;;5.90;99.90;;;;;;5067211;28;20461;-87
2022/04/27 10:19:49;;;;;;;425.25;64.32;;;6.10;99.90;;;;;;5050619;28;20418;-87
2022/04/27 10:22:32;;;;;;;329.23;31.90;;;6.10;99.90;;;;;;5050466;28;20440;-87
2022/04/27 10:25:08;;;;;;;179.80;25.93;;;6.20;99.90;;;;;;5050300;28;20873;-86
2022/04/27 10:27:38;;;;;;;253.07;52.38;;;6.20;99.90;;;;;;5050721;28;20396;-88
2022/04/27 10:30:08;;;;;;;413.90;71.63;;;6.10;99.90;;;;;;5048535;28;20418;-88
2022/04/27 10:32:36;;;;;;;445.38;53.80;;;6.10;99.90;;;;;;5053690;28;20399;-87
2022/04/27 10:35:17;;;;;;;306.30;37.47;;;6.00;99.90;;;;;;5045846;28;20899;-87
2022/04/27 10:37:57;;;;;;;34.17;6.90;;;5.80;99.90;;;;;;5031027;28;20397;-88
2022/04/27 10:40:37;;;;;;;252.95;36.13;;;5.80;99.90;;;;;;5030432;28;20400;-87
2022/04/27 10:43:13;;;;;;;471.98;69.55;;;6.00;99.90;;;;;;5034785;28;20871;-87
2022/04/27 10:45:48;;;;;;;91.65;13.30;;;5.90;99.90;;;;;;5054142;28;20754;-87
2022/04/27 10:48:27;;;;;;;597.75;75.88;;;6.00;99.90;;;;;;5054592;28;20400;-88
2022/04/27 10:50:55;;;;;;;58.17;6.45;;;6.10;99.90;;;;;;5050793;28;20385;-87
2022/04/27 10:53:28;;;;;;;261.77;35.37;;;6.30;99.90;;;;;;5050491;28;20382;-87
2022/04/27 10:56:23;;;;;;;232.52;46.50;;;6.30;99.90;;;;;;5057037;28;20878;-87
2022/04/27 10:58:52;;;;;;;23.77;2.55;;;6.40;99.90;;;;;;5053619;28;20409;-88
2022/04/27 11:01:31;;;;;;;321.60;40.60;;;6.40;99.90;;;;;;5037264;28;20438;-87
2022/04/27 11:04:04;;;;;;;381.10;65.35;;;6.70;99.90;;;;;;5053841;28;20395;-87
2022/04/27 11:06:52;;;;;;;183.77;20.88;;;6.80;99.90;;;;;;5053649;28;20415;-88
2022/04/27 11:09:48;;;;;;;66.68;8.70;;;6.90;99.90;;;;;;5053688;28;20396;-88
2022/04/27 11:12:17;;;;;;;920.55;136.25;;;6.60;99.90;;;;;;5054718;28;20442;-88
2022/04/27 11:14:46;;;;;;;566.42;100.13;;;6.40;99.90;;;;;;5054488;28;20414;-88
2022/04/27 11:17:29;;;;;;;137.07;19.80;;;6.20;99.90;;;;;;5053506;28;20392;-88
2022/04/27 11:19:56;;;;;;;168.73;34.90;;;6.20;99.90;;;;;;5054001;28;20391;-87
2022/04/27 11:22:24;;;;;;;57.42;9.70;;;6.10;99.90;;;;;;5053298;28;20399;-88
2022/04/27 11:24:53;;;;;;;260.13;32.50;;;6.10;99.90;;;;;;5054663;28;20870;-87
2022/04/27 11:27:26;;;;;;;597.92;74.28;;;6.10;99.90;;;;;;5070134;28;20472;-88
2022/04/27 11:29:55;;;;;;;114.63;13.73;;;6.00;99.90;;;;;;5044651;28;20407;-86
2022/04/27 11:32:22;;;;;;;41.80;3.70;;;5.80;99.90;;;;;;5052786;28;20958;-87
2022/04/27 11:34:50;;;;;;;59.90;10.30;;;5.80;99.90;;;;;;5050623;28;20407;-87
2022/04/27 11:37:19;;;;;;;122.38;28.45;;;5.80;99.90;;;;;;5050288;28;20394;-88
2022/04/27 11:39:48;;;;;;;280.58;52.10;;;5.80;99.90;;;;;;5041269;28;20393;-87
2022/04/27 11:42:17;;;;;;;75.15;19.50;;;5.80;99.90;;;;;;5039188;28;20930;-88
2022/04/27 11:44:52;;;;;;;292.02;42.90;;;5.90;99.90;;;;;;5031970;28;20990;-88
2022/04/27 11:47:31;;;;;;;333.63;66.80;;;5.90;99.90;;;;;;5049816;28;20795;-87
2022/04/27 11:50:02;;;;;;;28.10;3.50;;;5.80;99.90;;;;;;5062709;28;20408;-88
2022/04/27 11:52:31;;;;;;;134.82;19.00;;;5.90;99.90;;;;;;5033189;28;20397;-88
2022/04/27 11:55:08;;;;;;;246.10;51.50;;;5.90;99.90;;;;;;5032714;28;21002;-88
2022/04/27 11:57:37;;;;;;;117.18;14.00;;;5.90;99.90;;;;;;5053439;28;20392;-88
2022/04/27 12:00:05;;;;;;;507.52;72.22;;;5.90;99.90;;;;;;5052727;28;20800;-88
2022/04/27 12:02:42;;;;;;;499.58;68.90;;;5.90;99.90;;;;;;5047726;28;20405;-88
2022/04/27 12:05:10;;;;;;;248.30;35.03;;;5.90;99.90;;;;;;5030891;28;20393;-87
2022/04/27 12:07:38;;;;;;;190.98;22.73;;;5.90;99.90;;;;;;5036535;28;20420;-88
2022/04/27 12:10:10;;;;;;;234.00;44.97;;;5.80;99.90;;;;;;5033906;28;20397;-88
2022/04/27 12:12:39;;;;;;;223.48;31.67;;;5.80;99.90;;;;;;5049799;28;20388;-86
2022/04/27 12:15:12;;;;;;;476.88;72.32;;;5.80;99.90;;;;;;5033894;28;20779;-88
2022/04/27 12:17:47;;;;;;;287.63;34.15;;;5.90;99.90;;;;;;5033341;28;20392;-88
2022/04/27 12:20:29;;;;;;;193.67;34.03;;;5.90;99.90;;;;;;5045347;28;20445;-87
2022/04/27 12:23:02;;;;;;;296.03;67.60;;;5.90;99.90;;;;;;5034777;28;20905;-88
2022/04/27 12:25:35;;;;;;;172.27;23.35;;;6.00;99.90;;;;;;5039978;28;20417;-88
2022/04/27 12:28:14;;;;;;;293.35;48.17;;;6.00;99.90;;;;;;5040171;28;20381;-87
2022/04/27 12:30:50;;;;;;;506.50;62.72;;;6.00;99.90;;;;;;5056691;28;20399;-88
2022/04/27 12:33:21;;;;;;;424.67;88.85;;;6.00;99.90;;;;;;5049010;28;20397;-88
2022/04/27 12:39:04;;;;;;;228.70;32.58;;;6.00;99.90;;;;;;5047464;28;20458;-88
2022/04/27 12:41:42;;;;;;;1213.93;125.33;;;6.10;99.90;;;;;;5049220;28;20389;-87
2022/04/27 12:44:15;;;;;;;129.52;17.52;;;6.10;99.90;;;;;;5049053;28;20496;-87
2022/04/27 12:47:04;;;;;;;131.20;21.92;;;6.10;99.90;;;;;;5034357;28;20389;-88
2022/04/27 12:49:38;;;;;;;33.13;3.15;;;6.10;99.90;;;;;;5052277;28;20398;-86
2022/04/27 12:52:33;;;;;;;933.03;115.33;;;6.20;99.90;;;;;;5035489;28;20388;-86
2022/04/27 12:55:07;;;;;;;1.48;0.80;;;6.20;99.90;;;;;;5050770;28;20404;-87
2022/04/27 12:57:52;;;;;;;198.45;43.50;;;6.20;99.90;;;;;;5051807;28;20809;-87
2022/04/27 13:00:39;;;;;;;364.15;67.38;;;6.40;99.90;;;;;;5052577;28;20449;-86
2022/04/27 13:03:10;;;;;;;217.57;30.50;;;6.40;99.90;;;;;;5051484;28;20384;-85
2022/04/27 13:05:40;;;;;;;608.97;92.22;;;6.40;99.90;;;;;;5051207;28;20388;-85
2022/04/27 13:08:09;;;;;;;44.85;11.38;;;6.30;99.90;;;;;;5051414;28;20420;-85
2022/04/27 13:13:25;;;;;;;181.50;23.83;;;6.30;99.90;;;;;;5031377;28;20428;-85
2022/04/27 13:15:53;;;;;;;1008.15;110.90;;;6.40;99.90;;;;;;5031169;28;20408;-85
2022/04/27 13:18:22;;;;;;;291.80;39.33;;;6.40;99.90;;;;;;5031447;28;20409;-86
2022/04/27 13:20:50;;;;;;;19.77;4.35;;;6.40;99.90;;;;;;5031177;28;20436;-85
2022/04/27 13:23:19;;;;;;;357.45;42.88;;;6.30;99.90;;;;;;5047831;28;20397;-85